Aérodrome :
LOGIN :

S'inscrire | Disclaimer

   EN    FR    IT 

 










Légende :    VFR   VFR Marginal   IFR   IFR Intensif   IFR Très Intensif
Visi : 
Plafond : 
>= 8 km
>= 3000ft
5 à 8 km
1000 à 3000 ft
1500m à 5 km
500 à 1000 ft
800 à 1500m
200 à 500 ft
< 800m
< 200 ft
Symboles :   Orages  Brouillard  Fortes neiges  Fortes précipitations  Vent > 20 kt
SIGMETs :   Divers  Orages  Givrage  Turbulence  Onde Orograph.  Cendres Volcan.







- Altitude de l'aérodrome : -11 ft
- Code IATA : AMS


EHAM - Amsterdam Schiphol

DERNIER METAR :
  • 160355Z 30003KT 9999 BKN022 14/11 Q1019 NOSIG

METARs EXPIRÉS :
  • 160325Z 28002KT 9999 BKN023 14/11 Q1019 NOSIG
  • 160255Z 32003KT 9999 BKN023 14/11 Q1019 NOSIG
  • 160225Z 31003KT 9999 BKN023 14/11 Q1019 NOSIG
  • 160155Z 31003KT 280V350 9999 BKN021 14/10 Q1019 NOSIG
  • 160125Z 32003KT 280V340 9999 BKN022 14/11 Q1019 NOSIG

TAF TAF EHAM
Valide du 16 à 00h jusqu'au 17 à 06h UTC


152316Z 1600/1706 30004KT 9999 BKN020
BECMG 1608/1611 29010KT SCT022
BECMG 1618/1621 VRB03KT CAVOK
BECMG 1623/1702 6000 MIFG
PROB40 1702/1705 2000 BCFG
Pas de NOTAMs connus pour ce terrain.



MET'MAP, la Météo Aéronautique d'un coup d'oeil ! - Copyright ORBIFLY Décembre 2007 - Disclaimer

ORBIFLY MET'MAP TEAM :

Programmation & Développement : Alexandra Zaïnal
Conception & Développement : Baudouin d'Aumeries
Co-Programmation & Développement : Marc-Olivier Méhu
Soutien technique & logistique : Manuel Goepfert

Contact : metmap@orbifly.com




SOURCES & CREDITS :

   NOAA